createdAt,value
2022-11-09T00:01:01.710Z,28.00
2022-11-09T00:11:08.837Z,29.98
2022-11-09T00:21:13.181Z,25.88
2022-11-09T00:31:17.920Z,32.95
2022-11-09T00:41:21.701Z,26.42
2022-11-09T00:51:23.824Z,25.85
2022-11-09T01:01:25.908Z,23.50
2022-11-09T01:11:28.597Z,23.73
2022-11-09T01:21:30.574Z,27.95
2022-11-09T01:31:35.943Z,30.25
2022-11-09T01:41:37.883Z,34.33
2022-11-09T01:51:47.658Z,37.28
2022-11-09T02:11:51.836Z,45.00
2022-11-09T02:21:54.678Z,51.15
2022-11-09T02:32:03.575Z,34.90
2022-11-09T02:42:21.024Z,38.67
2022-11-09T02:52:25.572Z,32.17
2022-11-09T03:02:29.129Z,38.13
2022-11-09T03:12:31.251Z,36.30
2022-11-09T03:22:39.748Z,30.02
2022-11-09T03:32:41.755Z,33.70
2022-11-09T03:42:45.518Z,30.85
2022-11-09T03:52:47.962Z,30.17
2022-11-09T04:02:50.099Z,26.77
2022-11-09T04:12:52.003Z,27.17
2022-11-09T04:22:58.001Z,30.90
2022-11-09T04:33:01.390Z,39.05
2022-11-09T04:43:05.337Z,37.10
2022-11-09T04:53:13.120Z,44.40
2022-11-09T05:03:15.117Z,30.40
2022-11-09T05:13:17.373Z,30.27
2022-11-09T05:23:19.629Z,33.55
2022-11-09T05:33:22.017Z,44.67
2022-11-09T05:43:24.239Z,36.58
2022-11-09T05:53:26.059Z,29.02
2022-11-09T06:03:27.981Z,26.40
2022-11-09T06:13:30.212Z,30.42
2022-11-09T06:23:32.555Z,34.92
2022-11-09T06:33:35.827Z,36.50
2022-11-09T06:43:37.708Z,34.65
2022-11-09T06:53:39.736Z,39.78
2022-11-09T07:03:42.934Z,28.30
2022-11-09T07:13:44.847Z,32.03
2022-11-09T07:23:48.465Z,29.80
2022-11-09T07:33:50.379Z,23.85
2022-11-09T07:43:53.630Z,21.98
2022-11-09T07:53:55.571Z,26.00
2022-11-09T08:03:57.413Z,23.33
2022-11-09T08:13:59.342Z,28.77
2022-11-09T08:24:01.161Z,31.65
2022-11-09T08:34:03.050Z,27.60
2022-11-09T08:44:06.186Z,34.72
2022-11-09T08:54:07.985Z,28.50
2022-11-09T09:04:09.780Z,26.75
2022-11-09T09:14:11.831Z,28.00
2022-11-09T09:24:13.675Z,25.65
2022-11-09T09:34:15.834Z,25.80
2022-11-09T09:44:36.422Z,29.60
2022-11-09T09:55:01.912Z,28.83
2022-11-09T10:05:09.877Z,24.08
2022-11-09T10:15:32.915Z,24.02
2022-11-09T10:25:58.196Z,20.83
2022-11-09T10:36:27.394Z,20.23
2022-11-09T10:46:29.291Z,20.15
2022-11-09T10:57:09.920Z,18.08
2022-11-09T11:07:30.431Z,18.73
2022-11-09T11:18:00.283Z,19.30
2022-11-09T11:28:40.592Z,18.05
2022-11-09T11:49:47.916Z,20.42
2022-11-09T12:00:20.306Z,26.40
2022-11-09T12:11:11.800Z,17.35
2022-11-09T12:22:11.417Z,18.73
2022-11-09T12:32:46.645Z,18.95
2022-11-09T12:43:12.764Z,22.58
2022-11-09T12:53:38.583Z,22.08
2022-11-09T13:04:02.542Z,27.27
2022-11-09T13:14:23.229Z,26.48
2022-11-09T13:25:45.635Z,21.65
2022-11-09T13:36:20.803Z,26.92
2022-11-09T13:47:39.347Z,30.02
2022-11-09T13:58:29.869Z,26.48
2022-11-09T14:08:57.250Z,26.52
2022-11-09T14:20:00.191Z,53.92
2022-11-09T14:30:28.830Z,25.45
2022-11-09T14:40:53.785Z,39.70
2022-11-09T14:51:17.162Z,32.80
2022-11-09T15:01:40.470Z,35.25
2022-11-09T15:12:04.089Z,36.30
2022-11-09T15:33:52.662Z,33.67
2022-11-09T15:44:14.498Z,39.42
2022-11-09T15:54:35.712Z,60.85
2022-11-09T16:05:02.723Z,46.95
2022-11-09T16:15:24.232Z,40.42
2022-11-09T16:26:15.659Z,40.92
2022-11-09T16:36:36.332Z,40.83
2022-11-09T16:46:57.024Z,54.63
2022-11-09T16:57:23.717Z,40.80
2022-11-09T17:07:44.044Z,53.95
2022-11-09T17:18:04.812Z,55.30
2022-11-09T17:28:26.249Z,63.88
2022-11-09T17:38:49.376Z,71.20
2022-11-09T17:49:10.515Z,41.08
2022-11-09T17:59:30.971Z,47.97
2022-11-09T18:09:51.418Z,50.17
2022-11-09T18:20:11.896Z,53.30
2022-11-09T18:30:35.628Z,57.03
2022-11-09T18:41:00.483Z,57.22
2022-11-09T18:51:20.792Z,44.92
2022-11-09T19:01:41.166Z,42.17
2022-11-09T19:12:04.172Z,49.22
2022-11-09T19:22:30.977Z,48.13
2022-11-09T19:32:52.508Z,58.78
2022-11-09T19:43:12.809Z,50.33
2022-11-09T19:53:35.929Z,54.95
2022-11-09T20:04:03.176Z,38.17
2022-11-09T20:14:26.000Z,39.63
2022-11-09T20:24:46.563Z,35.28
2022-11-09T20:35:07.544Z,38.50
2022-11-09T20:45:28.069Z,32.05
2022-11-09T20:55:52.931Z,42.90
2022-11-09T21:06:14.406Z,33.50
2022-11-09T21:16:34.852Z,40.05
2022-11-09T21:26:55.329Z,38.40
2022-11-09T21:37:15.983Z,36.95
2022-11-09T21:47:36.578Z,25.88
2022-11-09T21:57:56.995Z,36.15
2022-11-09T22:08:17.660Z,31.60
2022-11-09T22:18:38.389Z,39.08
2022-11-09T22:28:59.385Z,32.67
2022-11-09T22:39:20.198Z,34.15
2022-11-09T22:49:40.663Z,35.58
2022-11-09T23:00:01.343Z,36.63
2022-11-09T23:10:21.823Z,27.63
2022-11-09T23:20:43.161Z,36.10
2022-11-09T23:31:06.959Z,36.38
2022-11-09T23:41:27.614Z,34.55
2022-11-09T23:51:47.972Z,41.13
